sensor_id;sensor_type;location;lat;lon;timestamp;temperature;humidity
49373;DHT22;44113;38.408;-122.974;2022-09-12T00:01:08;24.70;42.30
49373;DHT22;44113;38.408;-122.974;2022-09-12T00:03:36;24.70;42.80
49373;DHT22;44113;38.408;-122.974;2022-09-12T00:08:40;24.60;43.60
49373;DHT22;44113;38.408;-122.974;2022-09-12T00:11:09;24.60;44.10
49373;DHT22;44113;38.408;-122.974;2022-09-12T00:13:38;24.60;44.40
49373;DHT22;44113;38.408;-122.974;2022-09-12T00:16:05;24.60;44.60
49373;DHT22;44113;38.408;-122.974;2022-09-12T00:18:32;24.60;44.90
49373;DHT22;44113;38.408;-122.974;2022-09-12T00:21:03;24.60;45.20
49373;DHT22;44113;38.408;-122.974;2022-09-12T00:23:32;24.60;45.40
49373;DHT22;44113;38.408;-122.974;2022-09-12T00:25:59;24.60;45.90
49373;DHT22;44113;38.408;-122.974;2022-09-12T00:28:26;24.60;46.20
49373;DHT22;44113;38.408;-122.974;2022-09-12T00:30:52;24.60;46.40
49373;DHT22;44113;38.408;-122.974;2022-09-12T00:33:19;24.50;46.50
49373;DHT22;44113;38.408;-122.974;2022-09-12T00:35:51;24.40;46.90
49373;DHT22;44113;38.408;-122.974;2022-09-12T00:38:20;24.40;47.30
49373;DHT22;44113;38.408;-122.974;2022-09-12T00:40:47;24.40;47.60
49373;DHT22;44113;38.408;-122.974;2022-09-12T00:45:57;24.40;48.20
49373;DHT22;44113;38.408;-122.974;2022-09-12T00:48:32;24.40;48.30
49373;DHT22;44113;38.408;-122.974;2022-09-12T00:51:01;24.40;48.70
49373;DHT22;44113;38.408;-122.974;2022-09-12T00:53:29;24.40;48.70
49373;DHT22;44113;38.408;-122.974;2022-09-12T00:55:57;24.40;48.80
49373;DHT22;44113;38.408;-122.974;2022-09-12T00:58:28;24.40;49.00
49373;DHT22;44113;38.408;-122.974;2022-09-12T01:00:56;24.40;49.50
49373;DHT22;44113;38.408;-122.974;2022-09-12T01:03:24;24.30;50.10
49373;DHT22;44113;38.408;-122.974;2022-09-12T01:06:14;24.30;50.50
49373;DHT22;44113;38.408;-122.974;2022-09-12T01:08:43;24.30;51.10
49373;DHT22;44113;38.408;-122.974;2022-09-12T01:11:12;24.20;51.40
49373;DHT22;44113;38.408;-122.974;2022-09-12T01:13:39;24.20;51.80
49373;DHT22;44113;38.408;-122.974;2022-09-12T01:16:07;24.20;52.40
49373;DHT22;44113;38.408;-122.974;2022-09-12T01:30:02;24.10;53.10
49373;DHT22;44113;38.408;-122.974;2022-09-12T01:38:41;24.00;53.20
49373;DHT22;44113;38.408;-122.974;2022-09-12T01:41:20;24.00;53.70
49373;DHT22;44113;38.408;-122.974;2022-09-12T01:44:08;24.00;54.10
49373;DHT22;44113;38.408;-122.974;2022-09-12T01:47:36;23.90;55.00
49373;DHT22;44113;38.408;-122.974;2022-09-12T02:00:31;23.70;54.50
49373;DHT22;44113;38.408;-122.974;2022-09-12T02:03:11;23.70;54.50
49373;DHT22;44113;38.408;-122.974;2022-09-12T02:05:46;23.70;54.20
49373;DHT22;44113;38.408;-122.974;2022-09-12T02:08:32;23.70;54.40
49373;DHT22;44113;38.408;-122.974;2022-09-12T02:11:08;23.60;54.40
49373;DHT22;44113;38.408;-122.974;2022-09-12T02:16:39;23.60;54.20
49373;DHT22;44113;38.408;-122.974;2022-09-12T02:19:15;23.50;54.10
49373;DHT22;44113;38.408;-122.974;2022-09-12T02:21:50;23.50;54.10
49373;DHT22;44113;38.408;-122.974;2022-09-12T02:24:19;23.50;53.80
49373;DHT22;44113;38.408;-122.974;2022-09-12T02:26:51;23.50;54.10
49373;DHT22;44113;38.408;-122.974;2022-09-12T02:29:20;23.50;54.10
49373;DHT22;44113;38.408;-122.974;2022-09-12T02:31:53;23.40;54.00
49373;DHT22;44113;38.408;-122.974;2022-09-12T02:37:37;23.40;54.10
49373;DHT22;44113;38.408;-122.974;2022-09-12T02:40:07;23.40;54.20
49373;DHT22;44113;38.408;-122.974;2022-09-12T02:42:35;23.30;54.30
49373;DHT22;44113;38.408;-122.974;2022-09-12T02:45:03;23.30;54.80
49373;DHT22;44113;38.408;-122.974;2022-09-12T02:48:07;23.30;54.50
49373;DHT22;44113;38.408;-122.974;2022-09-12T02:50:35;23.30;54.30
49373;DHT22;44113;38.408;-122.974;2022-09-12T02:53:02;23.30;53.80
49373;DHT22;44113;38.408;-122.974;2022-09-12T02:55:32;23.30;53.80
49373;DHT22;44113;38.408;-122.974;2022-09-12T02:58:02;23.40;53.70
49373;DHT22;44113;38.408;-122.974;2022-09-12T03:00:34;23.40;53.60
49373;DHT22;44113;38.408;-122.974;2022-09-12T03:05:59;23.40;53.60
49373;DHT22;44113;38.408;-122.974;2022-09-12T03:20:07;23.60;56.40
49373;DHT22;44113;38.408;-122.974;2022-09-12T03:22:55;23.60;57.20
49373;DHT22;44113;38.408;-122.974;2022-09-12T03:25:35;23.60;57.80
49373;DHT22;44113;38.408;-122.974;2022-09-12T03:28:13;23.60;57.50
49373;DHT22;44113;38.408;-122.974;2022-09-12T03:30:45;23.60;57.00
49373;DHT22;44113;38.408;-122.974;2022-09-12T03:33:16;23.60;54.70
49373;DHT22;44113;38.408;-122.974;2022-09-12T03:35:44;23.60;55.70
49373;DHT22;44113;38.408;-122.974;2022-09-12T03:38:11;23.60;56.20
49373;DHT22;44113;38.408;-122.974;2022-09-12T03:40:38;23.60;54.80
49373;DHT22;44113;38.408;-122.974;2022-09-12T03:43:06;23.60;54.60
49373;DHT22;44113;38.408;-122.974;2022-09-12T03:45:33;23.70;54.60
49373;DHT22;44113;38.408;-122.974;2022-09-12T03:48:00;23.70;53.30
49373;DHT22;44113;38.408;-122.974;2022-09-12T03:50:28;23.70;53.70
49373;DHT22;44113;38.408;-122.974;2022-09-12T03:52:54;23.70;53.40
49373;DHT22;44113;38.408;-122.974;2022-09-12T03:55:21;23.70;53.00
49373;DHT22;44113;38.408;-122.974;2022-09-12T03:57:47;23.70;52.80
49373;DHT22;44113;38.408;-122.974;2022-09-12T04:00:18;23.70;53.10
49373;DHT22;44113;38.408;-122.974;2022-09-12T04:02:45;23.70;52.80
49373;DHT22;44113;38.408;-122.974;2022-09-12T04:05:11;23.70;52.80
49373;DHT22;44113;38.408;-122.974;2022-09-12T04:07:37;23.70;52.80
49373;DHT22;44113;38.408;-122.974;2022-09-12T04:10:04;23.70;52.80
49373;DHT22;44113;38.408;-122.974;2022-09-12T04:12:31;23.70;52.60
49373;DHT22;44113;38.408;-122.974;2022-09-12T04:14:57;23.70;51.90
49373;DHT22;44113;38.408;-122.974;2022-09-12T04:17:24;23.80;51.30
49373;DHT22;44113;38.408;-122.974;2022-09-12T04:19:50;23.80;51.60
49373;DHT22;44113;38.408;-122.974;2022-09-12T04:22:16;23.80;51.30
49373;DHT22;44113;38.408;-122.974;2022-09-12T04:24:43;23.80;50.90
49373;DHT22;44113;38.408;-122.974;2022-09-12T04:27:09;23.90;50.40
49373;DHT22;44113;38.408;-122.974;2022-09-12T04:29:35;23.90;49.90
49373;DHT22;44113;38.408;-122.974;2022-09-12T04:32:02;23.90;49.10
49373;DHT22;44113;38.408;-122.974;2022-09-12T04:34:30;23.90;49.80
49373;DHT22;44113;38.408;-122.974;2022-09-12T04:36:57;23.90;48.40
49373;DHT22;44113;38.408;-122.974;2022-09-12T04:39:23;23.90;47.90
49373;DHT22;44113;38.408;-122.974;2022-09-12T04:41:50;23.90;47.60
49373;DHT22;44113;38.408;-122.974;2022-09-12T04:44:17;23.90;47.40
49373;DHT22;44113;38.408;-122.974;2022-09-12T04:46:45;23.90;47.40
49373;DHT22;44113;38.408;-122.974;2022-09-12T04:49:12;23.90;47.30
49373;DHT22;44113;38.408;-122.974;2022-09-12T04:51:41;23.90;47.20
49373;DHT22;44113;38.408;-122.974;2022-09-12T04:54:12;23.90;46.80
49373;DHT22;44113;38.408;-122.974;2022-09-12T04:56:42;23.90;46.70
49373;DHT22;44113;38.408;-122.974;2022-09-12T04:59:10;23.90;46.70
49373;DHT22;44113;38.408;-122.974;2022-09-12T05:01:36;23.90;47.10
49373;DHT22;44113;38.408;-122.974;2022-09-12T05:04:03;23.90;46.30
49373;DHT22;44113;38.408;-122.974;2022-09-12T05:06:33;23.90;46.20
49373;DHT22;44113;38.408;-122.974;2022-09-12T05:09:01;24.00;46.00
49373;DHT22;44113;38.408;-122.974;2022-09-12T05:11:33;24.00;46.00
49373;DHT22;44113;38.408;-122.974;2022-09-12T05:14:00;24.00;45.70
49373;DHT22;44113;38.408;-122.974;2022-09-12T05:16:27;24.00;46.00
49373;DHT22;44113;38.408;-122.974;2022-09-12T05:18:58;24.00;45.80
49373;DHT22;44113;38.408;-122.974;2022-09-12T05:21:25;24.00;45.80
49373;DHT22;44113;38.408;-122.974;2022-09-12T05:23:54;24.00;45.70
49373;DHT22;44113;38.408;-122.974;2022-09-12T05:26:22;24.00;45.90
49373;DHT22;44113;38.408;-122.974;2022-09-12T05:28:50;24.00;46.00
49373;DHT22;44113;38.408;-122.974;2022-09-12T05:31:22;23.90;46.10
49373;DHT22;44113;38.408;-122.974;2022-09-12T05:33:51;23.90;46.20
49373;DHT22;44113;38.408;-122.974;2022-09-12T05:36:25;24.00;46.40
49373;DHT22;44113;38.408;-122.974;2022-09-12T05:38:51;24.00;46.40
49373;DHT22;44113;38.408;-122.974;2022-09-12T05:41:23;24.00;46.40
49373;DHT22;44113;38.408;-122.974;2022-09-12T05:43:52;24.00;46.40
49373;DHT22;44113;38.408;-122.974;2022-09-12T05:46:21;24.00;46.30
49373;DHT22;44113;38.408;-122.974;2022-09-12T05:48:49;24.00;46.20
49373;DHT22;44113;38.408;-122.974;2022-09-12T05:51:19;24.00;46.00
49373;DHT22;44113;38.408;-122.974;2022-09-12T05:53:54;24.00;45.90
49373;DHT22;44113;38.408;-122.974;2022-09-12T05:56:23;24.00;45.90
49373;DHT22;44113;38.408;-122.974;2022-09-12T05:58:58;24.00;45.90
49373;DHT22;44113;38.408;-122.974;2022-09-12T06:01:26;24.00;46.00
49373;DHT22;44113;38.408;-122.974;2022-09-12T06:03:55;23.90;46.50
49373;DHT22;44113;38.408;-122.974;2022-09-12T06:06:24;24.00;46.20
49373;DHT22;44113;38.408;-122.974;2022-09-12T06:08:52;24.00;46.30
49373;DHT22;44113;38.408;-122.974;2022-09-12T06:11:22;24.00;46.30
49373;DHT22;44113;38.408;-122.974;2022-09-12T06:13:51;24.00;46.40
49373;DHT22;44113;38.408;-122.974;2022-09-12T06:16:23;24.00;46.40
49373;DHT22;44113;38.408;-122.974;2022-09-12T06:18:59;24.00;46.50
49373;DHT22;44113;38.408;-122.974;2022-09-12T06:21:27;24.00;46.60
49373;DHT22;44113;38.408;-122.974;2022-09-12T06:23:56;24.00;46.80
49373;DHT22;44113;38.408;-122.974;2022-09-12T06:26:23;24.00;46.90
49373;DHT22;44113;38.408;-122.974;2022-09-12T06:28:51;24.00;47.10
49373;DHT22;44113;38.408;-122.974;2022-09-12T06:31:27;24.00;47.10
49373;DHT22;44113;38.408;-122.974;2022-09-12T06:33:55;24.00;47.20
49373;DHT22;44113;38.408;-122.974;2022-09-12T06:36:29;24.00;47.20
49373;DHT22;44113;38.408;-122.974;2022-09-12T06:39:02;24.00;47.30
49373;DHT22;44113;38.408;-122.974;2022-09-12T06:41:30;24.00;47.40
49373;DHT22;44113;38.408;-122.974;2022-09-12T06:43:57;23.90;47.50
49373;DHT22;44113;38.408;-122.974;2022-09-12T06:46:25;24.00;47.60
49373;DHT22;44113;38.408;-122.974;2022-09-12T06:48:52;24.00;47.60
49373;DHT22;44113;38.408;-122.974;2022-09-12T06:51:19;24.00;47.60
49373;DHT22;44113;38.408;-122.974;2022-09-12T06:53:46;24.00;47.50
49373;DHT22;44113;38.408;-122.974;2022-09-12T06:56:16;24.00;47.50
49373;DHT22;44113;38.408;-122.974;2022-09-12T06:58:44;24.00;47.50
49373;DHT22;44113;38.408;-122.974;2022-09-12T07:01:12;24.00;47.60
49373;DHT22;44113;38.408;-122.974;2022-09-12T07:03:40;24.00;47.60
49373;DHT22;44113;38.408;-122.974;2022-09-12T07:06:10;24.00;47.60
49373;DHT22;44113;38.408;-122.974;2022-09-12T07:08:38;24.00;47.50
49373;DHT22;44113;38.408;-122.974;2022-09-12T07:11:16;24.00;47.40
49373;DHT22;44113;38.408;-122.974;2022-09-12T07:13:46;24.00;47.10
49373;DHT22;44113;38.408;-122.974;2022-09-12T07:16:14;23.90;47.10
49373;DHT22;44113;38.408;-122.974;2022-09-12T07:18:41;24.00;47.30
49373;DHT22;44113;38.408;-122.974;2022-09-12T07:21:13;24.00;47.40
49373;DHT22;44113;38.408;-122.974;2022-09-12T07:23:40;24.00;47.50
49373;DHT22;44113;38.408;-122.974;2022-09-12T07:26:10;24.00;47.40
49373;DHT22;44113;38.408;-122.974;2022-09-12T07:28:37;24.00;47.40
49373;DHT22;44113;38.408;-122.974;2022-09-12T07:31:12;24.00;47.40
49373;DHT22;44113;38.408;-122.974;2022-09-12T07:33:40;24.00;47.30
49373;DHT22;44113;38.408;-122.974;2022-09-12T07:36:12;24.00;47.30
49373;DHT22;44113;38.408;-122.974;2022-09-12T07:38:39;24.00;47.30
49373;DHT22;44113;38.408;-122.974;2022-09-12T07:41:20;23.90;47.30
49373;DHT22;44113;38.408;-122.974;2022-09-12T07:43:51;24.00;47.40
49373;DHT22;44113;38.408;-122.974;2022-09-12T07:46:18;24.00;47.50
49373;DHT22;44113;38.408;-122.974;2022-09-12T07:48:49;24.00;47.60
49373;DHT22;44113;38.408;-122.974;2022-09-12T07:51:16;23.90;47.70
49373;DHT22;44113;38.408;-122.974;2022-09-12T07:53:44;23.90;47.80
49373;DHT22;44113;38.408;-122.974;2022-09-12T07:56:11;24.00;48.00
49373;DHT22;44113;38.408;-122.974;2022-09-12T07:58:39;24.00;48.00
49373;DHT22;44113;38.408;-122.974;2022-09-12T08:01:09;24.00;48.10
49373;DHT22;44113;38.408;-122.974;2022-09-12T08:03:39;24.00;48.20
49373;DHT22;44113;38.408;-122.974;2022-09-12T08:06:06;24.00;48.90
49373;DHT22;44113;38.408;-122.974;2022-09-12T08:08:35;24.00;48.60
49373;DHT22;44113;38.408;-122.974;2022-09-12T08:11:04;24.00;48.60
49373;DHT22;44113;38.408;-122.974;2022-09-12T08:13:32;24.00;48.70
49373;DHT22;44113;38.408;-122.974;2022-09-12T08:16:01;23.90;48.80
49373;DHT22;44113;38.408;-122.974;2022-09-12T08:18:29;23.90;48.80
49373;DHT22;44113;38.408;-122.974;2022-09-12T08:20:58;23.90;49.10
49373;DHT22;44113;38.408;-122.974;2022-09-12T08:23:26;23.90;49.20
49373;DHT22;44113;38.408;-122.974;2022-09-12T08:26:00;23.90;49.20
49373;DHT22;44113;38.408;-122.974;2022-09-12T08:28:29;23.90;49.40
49373;DHT22;44113;38.408;-122.974;2022-09-12T08:31:04;23.90;49.40
49373;DHT22;44113;38.408;-122.974;2022-09-12T08:33:31;23.90;49.50
49373;DHT22;44113;38.408;-122.974;2022-09-12T08:36:15;23.90;49.70
49373;DHT22;44113;38.408;-122.974;2022-09-12T08:38:44;23.80;49.70
49373;DHT22;44113;38.408;-122.974;2022-09-12T08:49:46;23.80;50.10
49373;DHT22;44113;38.408;-122.974;2022-09-12T08:52:29;23.80;50.80
49373;DHT22;44113;38.408;-122.974;2022-09-12T08:55:01;23.80;50.20
49373;DHT22;44113;38.408;-122.974;2022-09-12T08:57:27;23.80;50.40
49373;DHT22;44113;38.408;-122.974;2022-09-12T08:59:55;23.80;50.40
49373;DHT22;44113;38.408;-122.974;2022-09-12T09:17:09;23.70;50.90
49373;DHT22;44113;38.408;-122.974;2022-09-12T09:19:43;23.70;51.00
49373;DHT22;44113;38.408;-122.974;2022-09-12T09:22:36;23.70;51.00
49373;DHT22;44113;38.408;-122.974;2022-09-12T09:25:25;23.70;51.10
49373;DHT22;44113;38.408;-122.974;2022-09-12T09:27:59;23.70;51.10
49373;DHT22;44113;38.408;-122.974;2022-09-12T09:30:29;23.70;51.10
49373;DHT22;44113;38.408;-122.974;2022-09-12T09:32:59;23.70;51.10
49373;DHT22;44113;38.408;-122.974;2022-09-12T09:35:36;23.70;51.10
49373;DHT22;44113;38.408;-122.974;2022-09-12T09:43:29;23.70;51.10
49373;DHT22;44113;38.408;-122.974;2022-09-12T09:45:56;23.70;51.10
49373;DHT22;44113;38.408;-122.974;2022-09-12T09:48:34;23.70;51.10
49373;DHT22;44113;38.408;-122.974;2022-09-12T09:51:03;23.80;51.30
49373;DHT22;44113;38.408;-122.974;2022-09-12T10:01:34;23.70;51.20
49373;DHT22;44113;38.408;-122.974;2022-09-12T10:04:01;23.70;51.20
49373;DHT22;44113;38.408;-122.974;2022-09-12T10:06:31;23.70;51.30
49373;DHT22;44113;38.408;-122.974;2022-09-12T10:09:26;23.70;51.30
49373;DHT22;44113;38.408;-122.974;2022-09-12T10:11:55;23.70;51.20
49373;DHT22;44113;38.408;-122.974;2022-09-12T10:14:40;23.60;51.20
49373;DHT22;44113;38.408;-122.974;2022-09-12T10:17:46;23.60;51.20
49373;DHT22;44113;38.408;-122.974;2022-09-12T10:20:32;23.60;51.20
49373;DHT22;44113;38.408;-122.974;2022-09-12T10:23:03;23.60;51.20
49373;DHT22;44113;38.408;-122.974;2022-09-12T10:25:52;23.60;51.20
49373;DHT22;44113;38.408;-122.974;2022-09-12T10:28:23;23.60;51.20
49373;DHT22;44113;38.408;-122.974;2022-09-12T10:30:55;23.60;51.20
49373;DHT22;44113;38.408;-122.974;2022-09-12T10:33:24;23.60;51.20
49373;DHT22;44113;38.408;-122.974;2022-09-12T10:35:52;23.60;51.20
49373;DHT22;44113;38.408;-122.974;2022-09-12T10:41:08;23.60;51.20
49373;DHT22;44113;38.408;-122.974;2022-09-12T10:43:38;23.60;51.30
49373;DHT22;44113;38.408;-122.974;2022-09-12T10:48:41;23.50;51.30
49373;DHT22;44113;38.408;-122.974;2022-09-12T10:51:26;23.60;51.30
49373;DHT22;44113;38.408;-122.974;2022-09-12T10:53:58;23.60;51.30
49373;DHT22;44113;38.408;-122.974;2022-09-12T10:56:37;23.60;51.20
49373;DHT22;44113;38.408;-122.974;2022-09-12T11:10:41;23.50;51.50
49373;DHT22;44113;38.408;-122.974;2022-09-12T11:27:30;23.50;51.60
49373;DHT22;44113;38.408;-122.974;2022-09-12T11:30:11;23.40;51.70
49373;DHT22;44113;38.408;-122.974;2022-09-12T11:44:28;23.40;51.90
49373;DHT22;44113;38.408;-122.974;2022-09-12T11:46:37;23.40;52.40
49373;DHT22;44113;38.408;-122.974;2022-09-12T11:51:49;23.50;51.90
49373;DHT22;44113;38.408;-122.974;2022-09-12T12:05:45;23.40;52.40
49373;DHT22;44113;38.408;-122.974;2022-09-12T12:08:17;23.40;52.50
49373;DHT22;44113;38.408;-122.974;2022-09-12T12:10:53;23.30;52.30
49373;DHT22;44113;38.408;-122.974;2022-09-12T12:13:28;23.40;52.20
49373;DHT22;44113;38.408;-122.974;2022-09-12T12:16:06;23.40;52.10
49373;DHT22;44113;38.408;-122.974;2022-09-12T12:18:36;23.40;52.10
49373;DHT22;44113;38.408;-122.974;2022-09-12T12:45:00;23.20;51.80
49373;DHT22;44113;38.408;-122.974;2022-09-12T12:50:01;23.20;51.70
49373;DHT22;44113;38.408;-122.974;2022-09-12T12:53:17;23.20;51.70
49373;DHT22;44113;38.408;-122.974;2022-09-12T12:58:32;23.30;51.80
49373;DHT22;44113;38.408;-122.974;2022-09-12T13:01:27;23.30;51.80
49373;DHT22;44113;38.408;-122.974;2022-09-12T13:04:04;23.20;51.90
49373;DHT22;44113;38.408;-122.974;2022-09-12T13:06:42;23.20;52.00
49373;DHT22;44113;38.408;-122.974;2022-09-12T13:09:31;23.20;52.10
49373;DHT22;44113;38.408;-122.974;2022-09-12T13:12:08;23.20;52.20
49373;DHT22;44113;38.408;-122.974;2022-09-12T13:17:28;23.20;52.30
49373;DHT22;44113;38.408;-122.974;2022-09-12T13:20:15;23.20;52.30
49373;DHT22;44113;38.408;-122.974;2022-09-12T13:22:45;23.20;52.30
49373;DHT22;44113;38.408;-122.974;2022-09-12T13:28:15;23.20;52.20
49373;DHT22;44113;38.408;-122.974;2022-09-12T13:33:50;23.20;52.40
49373;DHT22;44113;38.408;-122.974;2022-09-12T13:42:21;23.20;52.60
49373;DHT22;44113;38.408;-122.974;2022-09-12T13:45:18;23.10;52.60
49373;DHT22;44113;38.408;-122.974;2022-09-12T13:47:54;23.10;52.70
49373;DHT22;44113;38.408;-122.974;2022-09-12T13:50:27;23.10;52.80
49373;DHT22;44113;38.408;-122.974;2022-09-12T13:52:58;23.10;52.80
49373;DHT22;44113;38.408;-122.974;2022-09-12T13:55:36;23.10;52.80
49373;DHT22;44113;38.408;-122.974;2022-09-12T13:58:12;23.10;52.80
49373;DHT22;44113;38.408;-122.974;2022-09-12T14:00:40;23.10;52.90
49373;DHT22;44113;38.408;-122.974;2022-09-12T14:03:29;23.10;52.80
49373;DHT22;44113;38.408;-122.974;2022-09-12T14:06:15;23.10;52.80
49373;DHT22;44113;38.408;-122.974;2022-09-12T14:08:44;23.10;52.80
49373;DHT22;44113;38.408;-122.974;2022-09-12T14:11:25;23.10;52.90
49373;DHT22;44113;38.408;-122.974;2022-09-12T14:13:52;23.10;53.00
49373;DHT22;44113;38.408;-122.974;2022-09-12T14:16:22;23.10;53.00
49373;DHT22;44113;38.408;-122.974;2022-09-12T14:18:49;23.10;53.10
49373;DHT22;44113;38.408;-122.974;2022-09-12T14:23:52;23.00;53.20
49373;DHT22;44113;38.408;-122.974;2022-09-12T14:26:21;23.00;53.10
49373;DHT22;44113;38.408;-122.974;2022-09-12T14:28:50;23.00;53.10
49373;DHT22;44113;38.408;-122.974;2022-09-12T14:33:51;23.10;53.10
49373;DHT22;44113;38.408;-122.974;2022-09-12T14:36:22;23.00;53.00
49373;DHT22;44113;38.408;-122.974;2022-09-12T14:39:36;23.10;53.00
49373;DHT22;44113;38.408;-122.974;2022-09-12T14:41:41;23.10;52.90
49373;DHT22;44113;38.408;-122.974;2022-09-12T14:44:14;23.00;53.00
49373;DHT22;44113;38.408;-122.974;2022-09-12T14:46:43;23.00;53.10
49373;DHT22;44113;38.408;-122.974;2022-09-12T14:49:17;23.00;53.20
49373;DHT22;44113;38.408;-122.974;2022-09-12T15:02:43;22.90;53.40
49373;DHT22;44113;38.408;-122.974;2022-09-12T15:07:43;23.00;53.50
49373;DHT22;44113;38.408;-122.974;2022-09-12T15:10:30;23.00;53.40
49373;DHT22;44113;38.408;-122.974;2022-09-12T15:15:35;23.00;53.40
49373;DHT22;44113;38.408;-122.974;2022-09-12T15:18:02;23.00;53.50
49373;DHT22;44113;38.408;-122.974;2022-09-12T15:20:30;22.90;53.60
49373;DHT22;44113;38.408;-122.974;2022-09-12T15:22:57;22.90;53.60
49373;DHT22;44113;38.408;-122.974;2022-09-12T15:25:24;22.90;53.70
49373;DHT22;44113;38.408;-122.974;2022-09-12T15:27:52;22.90;53.70
49373;DHT22;44113;38.408;-122.974;2022-09-12T15:30:20;22.90;53.70
49373;DHT22;44113;38.408;-122.974;2022-09-12T15:32:47;22.90;53.80
49373;DHT22;44113;38.408;-122.974;2022-09-12T15:35:20;22.90;53.80
49373;DHT22;44113;38.408;-122.974;2022-09-12T15:37:48;22.90;54.00
49373;DHT22;44113;38.408;-122.974;2022-09-12T15:40:15;22.90;54.10
49373;DHT22;44113;38.408;-122.974;2022-09-12T15:42:42;22.90;54.20
49373;DHT22;44113;38.408;-122.974;2022-09-12T15:45:18;22.90;54.50
49373;DHT22;44113;38.408;-122.974;2022-09-12T15:47:45;23.00;54.60
49373;DHT22;44113;38.408;-122.974;2022-09-12T15:50:12;22.90;54.50
49373;DHT22;44113;38.408;-122.974;2022-09-12T15:52:39;22.90;54.40
49373;DHT22;44113;38.408;-122.974;2022-09-12T15:55:15;22.90;54.40
49373;DHT22;44113;38.408;-122.974;2022-09-12T15:57:43;22.90;54.30
49373;DHT22;44113;38.408;-122.974;2022-09-12T16:00:12;22.90;54.50
49373;DHT22;44113;38.408;-122.974;2022-09-12T16:02:38;22.90;54.50
49373;DHT22;44113;38.408;-122.974;2022-09-12T16:05:09;22.90;54.60
49373;DHT22;44113;38.408;-122.974;2022-09-12T16:07:36;22.90;54.70
49373;DHT22;44113;38.408;-122.974;2022-09-12T16:10:04;22.90;55.10
49373;DHT22;44113;38.408;-122.974;2022-09-12T16:12:31;22.80;55.10
49373;DHT22;44113;38.408;-122.974;2022-09-12T16:14:58;22.90;55.20
49373;DHT22;44113;38.408;-122.974;2022-09-12T16:17:25;22.90;55.20
49373;DHT22;44113;38.408;-122.974;2022-09-12T16:19:51;22.90;55.40
49373;DHT22;44113;38.408;-122.974;2022-09-12T16:22:18;22.90;55.30
49373;DHT22;44113;38.408;-122.974;2022-09-12T16:24:45;22.90;55.30
49373;DHT22;44113;38.408;-122.974;2022-09-12T16:27:12;22.90;55.30
49373;DHT22;44113;38.408;-122.974;2022-09-12T16:29:38;22.90;55.30
49373;DHT22;44113;38.408;-122.974;2022-09-12T16:32:05;22.90;55.50
49373;DHT22;44113;38.408;-122.974;2022-09-12T16:34:33;22.90;55.70
49373;DHT22;44113;38.408;-122.974;2022-09-12T16:36:59;22.90;55.90
49373;DHT22;44113;38.408;-122.974;2022-09-12T16:39:27;22.90;55.90
49373;DHT22;44113;38.408;-122.974;2022-09-12T16:41:53;22.90;56.10
49373;DHT22;44113;38.408;-122.974;2022-09-12T16:44:20;22.90;56.50
49373;DHT22;44113;38.408;-122.974;2022-09-12T16:46:46;22.90;56.60
49373;DHT22;44113;38.408;-122.974;2022-09-12T16:49:13;22.90;56.80
49373;DHT22;44113;38.408;-122.974;2022-09-12T16:51:39;22.90;56.80
49373;DHT22;44113;38.408;-122.974;2022-09-12T16:54:09;23.00;57.10
49373;DHT22;44113;38.408;-122.974;2022-09-12T16:56:36;23.00;57.20
49373;DHT22;44113;38.408;-122.974;2022-09-12T16:59:03;23.00;56.90
49373;DHT22;44113;38.408;-122.974;2022-09-12T17:01:31;23.00;56.80
49373;DHT22;44113;38.408;-122.974;2022-09-12T17:04:00;23.00;57.00
49373;DHT22;44113;38.408;-122.974;2022-09-12T17:06:27;23.00;57.10
49373;DHT22;44113;38.408;-122.974;2022-09-12T17:08:57;23.00;57.00
49373;DHT22;44113;38.408;-122.974;2022-09-12T17:11:35;23.00;57.10
49373;DHT22;44113;38.408;-122.974;2022-09-12T17:14:05;23.00;57.10
49373;DHT22;44113;38.408;-122.974;2022-09-12T17:16:33;23.00;57.10
49373;DHT22;44113;38.408;-122.974;2022-09-12T17:19:00;23.00;57.20
49373;DHT22;44113;38.408;-122.974;2022-09-12T17:21:27;23.00;57.80
49373;DHT22;44113;38.408;-122.974;2022-09-12T17:23:53;23.10;58.10
49373;DHT22;44113;38.408;-122.974;2022-09-12T17:26:20;23.10;57.90
49373;DHT22;44113;38.408;-122.974;2022-09-12T17:28:47;23.10;57.70
49373;DHT22;44113;38.408;-122.974;2022-09-12T17:31:14;23.10;58.70
49373;DHT22;44113;38.408;-122.974;2022-09-12T17:33:40;23.20;58.40
49373;DHT22;44113;38.408;-122.974;2022-09-12T17:36:17;23.20;58.10
49373;DHT22;44113;38.408;-122.974;2022-09-12T17:38:44;23.20;58.20
49373;DHT22;44113;38.408;-122.974;2022-09-12T17:41:16;23.20;59.00
49373;DHT22;44113;38.408;-122.974;2022-09-12T17:43:43;23.20;58.70
49373;DHT22;44113;38.408;-122.974;2022-09-12T17:46:11;23.20;58.60
49373;DHT22;44113;38.408;-122.974;2022-09-12T17:48:38;23.20;58.70
49373;DHT22;44113;38.408;-122.974;2022-09-12T17:51:12;23.20;58.70
49373;DHT22;44113;38.408;-122.974;2022-09-12T17:53:39;23.20;58.60
49373;DHT22;44113;38.408;-122.974;2022-09-12T17:56:07;23.30;58.90
49373;DHT22;44113;38.408;-122.974;2022-09-12T17:58:34;23.30;59.30
49373;DHT22;44113;38.408;-122.974;2022-09-12T18:01:02;23.30;59.40
49373;DHT22;44113;38.408;-122.974;2022-09-12T18:03:47;23.40;59.70
49373;DHT22;44113;38.408;-122.974;2022-09-12T18:06:13;23.50;60.00
49373;DHT22;44113;38.408;-122.974;2022-09-12T18:08:40;23.60;59.70
49373;DHT22;44113;38.408;-122.974;2022-09-12T18:11:07;23.60;60.10
49373;DHT22;44113;38.408;-122.974;2022-09-12T18:13:34;23.70;60.00
49373;DHT22;44113;38.408;-122.974;2022-09-12T18:16:05;23.60;60.10
49373;DHT22;44113;38.408;-122.974;2022-09-12T18:18:34;23.60;60.40
49373;DHT22;44113;38.408;-122.974;2022-09-12T18:21:04;23.60;60.30
49373;DHT22;44113;38.408;-122.974;2022-09-12T18:23:31;23.60;60.10
49373;DHT22;44113;38.408;-122.974;2022-09-12T18:26:02;23.60;60.10
49373;DHT22;44113;38.408;-122.974;2022-09-12T18:28:32;23.60;60.00
49373;DHT22;44113;38.408;-122.974;2022-09-12T18:30:59;23.70;59.80
49373;DHT22;44113;38.408;-122.974;2022-09-12T18:33:25;23.70;59.70
49373;DHT22;44113;38.408;-122.974;2022-09-12T18:35:52;23.80;59.30
49373;DHT22;44113;38.408;-122.974;2022-09-12T18:38:19;23.80;59.40
49373;DHT22;44113;38.408;-122.974;2022-09-12T18:40:45;23.80;59.40
49373;DHT22;44113;38.408;-122.974;2022-09-12T18:43:12;23.90;59.30